Andover, Minnesota
Current Conditions -  °F | °C
As of 12:50 PM on Saturday 20 Dec 2014 (Local Time) from KANE Reporting Station
Overcast Overcast  
Wind Chill: -3°   Ceiling: 1400
Heat Index:   Visibility: 10mi
Dew Point: -2°   Wind: 9mph
Humidity: 81%   Direction: 180°S
Pressure: 30.12"   Gusts: NA
Location:  45.24°N, 93.31°W
Report Text: KANE 201850Z 18008KT 10SM OVC014 01/M02 A3012
Loading
Personal Weather Stations






























Interactive Weather Map New forecast layout! Learn more

10-Day Weather Forecast

Advertisements
Track Severe Weather on mobile